sensor_id;sensor_type;location;lat;lon;timestamp;P1;durP1;ratioP1;P2;durP2;ratioP2
19560;SDS011;9927;47.792;10.616;2022-07-01T03:01:05;3.40;;;2.80;;
19560;SDS011;9927;47.792;10.616;2022-07-01T03:03:32;2.70;;;2.60;;
19560;SDS011;9927;47.792;10.616;2022-07-01T03:06:00;2.75;;;2.60;;
19560;SDS011;9927;47.792;10.616;2022-07-01T03:08:28;2.75;;;2.65;;
19560;SDS011;9927;47.792;10.616;2022-07-01T03:10:55;2.40;;;2.30;;
19560;SDS011;9927;47.792;10.616;2022-07-01T03:13:23;3.33;;;3.22;;
19560;SDS011;9927;47.792;10.616;2022-07-01T03:15:50;2.90;;;2.80;;
19560;SDS011;9927;47.792;10.616;2022-07-01T03:18:17;2.75;;;2.65;;
19560;SDS011;9927;47.792;10.616;2022-07-01T03:20:48;3.17;;;2.97;;
19560;SDS011;9927;47.792;10.616;2022-07-01T03:23:18;2.70;;;2.60;;
19560;SDS011;9927;47.792;10.616;2022-07-01T03:25:45;2.90;;;2.70;;
19560;SDS011;9927;47.792;10.616;2022-07-01T03:28:15;2.92;;;2.83;;
19560;SDS011;9927;47.792;10.616;2022-07-01T03:30:43;2.53;;;2.42;;
19560;SDS011;9927;47.792;10.616;2022-07-01T03:33:11;2.00;;;2.00;;
19560;SDS011;9927;47.792;10.616;2022-07-01T03:35:38;2.47;;;2.38;;
19560;SDS011;9927;47.792;10.616;2022-07-01T03:38:12;2.33;;;2.22;;
19560;SDS011;9927;47.792;10.616;2022-07-01T03:40:40;2.40;;;2.30;;
19560;SDS011;9927;47.792;10.616;2022-07-01T03:43:07;2.55;;;2.45;;
19560;SDS011;9927;47.792;10.616;2022-07-01T03:45:34;2.67;;;2.50;;
19560;SDS011;9927;47.792;10.616;2022-07-01T03:48:01;2.42;;;2.33;;
19560;SDS011;9927;47.792;10.616;2022-07-01T03:50:29;2.45;;;2.45;;
19560;SDS011;9927;47.792;10.616;2022-07-01T03:52:56;2.50;;;2.40;;
19560;SDS011;9927;47.792;10.616;2022-07-01T03:55:42;2.25;;;2.25;;
19560;SDS011;9927;47.792;10.616;2022-07-01T03:58:09;2.20;;;2.20;;
19560;SDS011;9927;47.792;10.616;2022-07-01T04:00:37;2.20;;;2.10;;
19560;SDS011;9927;47.792;10.616;2022-07-01T04:03:05;2.00;;;2.00;;
19560;SDS011;9927;47.792;10.616;2022-07-01T04:05:33;2.13;;;2.00;;
19560;SDS011;9927;47.792;10.616;2022-07-01T04:08:03;2.00;;;2.00;;
19560;SDS011;9927;47.792;10.616;2022-07-01T04:10:32;2.03;;;2.03;;
19560;SDS011;9927;47.792;10.616;2022-07-01T04:13:01;2.55;;;2.45;;
19560;SDS011;9927;47.792;10.616;2022-07-01T04:15:48;3.22;;;2.20;;
19560;SDS011;9927;47.792;10.616;2022-07-01T04:18:16;2.20;;;2.20;;
19560;SDS011;9927;47.792;10.616;2022-07-01T04:20:43;2.55;;;2.42;;
19560;SDS011;9927;47.792;10.616;2022-07-01T04:23:31;2.42;;;2.33;;
19560;SDS011;9927;47.792;10.616;2022-07-01T04:26:00;2.40;;;2.30;;
19560;SDS011;9927;47.792;10.616;2022-07-01T04:28:51;6.25;;;2.63;;
19560;SDS011;9927;47.792;10.616;2022-07-01T04:31:19;2.80;;;2.70;;
19560;SDS011;9927;47.792;10.616;2022-07-01T04:33:47;2.47;;;2.38;;
19560;SDS011;9927;47.792;10.616;2022-07-01T04:36:15;4.13;;;2.63;;
19560;SDS011;9927;47.792;10.616;2022-07-01T04:38:43;2.50;;;2.40;;
19560;SDS011;9927;47.792;10.616;2022-07-01T04:41:10;2.55;;;2.45;;
19560;SDS011;9927;47.792;10.616;2022-07-01T04:43:56;2.40;;;2.35;;
19560;SDS011;9927;47.792;10.616;2022-07-01T04:46:24;2.35;;;2.30;;
19560;SDS011;9927;47.792;10.616;2022-07-01T04:48:51;2.97;;;2.88;;
19560;SDS011;9927;47.792;10.616;2022-07-01T04:51:19;2.70;;;2.50;;
19560;SDS011;9927;47.792;10.616;2022-07-01T04:53:46;2.00;;;2.00;;
19560;SDS011;9927;47.792;10.616;2022-07-01T04:56:15;2.17;;;2.17;;
19560;SDS011;9927;47.792;10.616;2022-07-01T04:58:42;2.38;;;2.33;;
19560;SDS011;9927;47.792;10.616;2022-07-01T05:01:12;4.47;;;2.70;;
19560;SDS011;9927;47.792;10.616;2022-07-01T05:03:42;2.28;;;2.28;;
19560;SDS011;9927;47.792;10.616;2022-07-01T05:06:10;2.42;;;2.22;;
19560;SDS011;9927;47.792;10.616;2022-07-01T05:08:37;2.42;;;2.40;;
19560;SDS011;9927;47.792;10.616;2022-07-01T05:11:04;3.13;;;2.30;;
19560;SDS011;9927;47.792;10.616;2022-07-01T05:13:33;2.60;;;2.50;;
19560;SDS011;9927;47.792;10.616;2022-07-01T05:16:01;2.67;;;2.58;;
19560;SDS011;9927;47.792;10.616;2022-07-01T05:18:29;2.10;;;2.10;;
19560;SDS011;9927;47.792;10.616;2022-07-01T05:21:16;2.20;;;2.20;;
19560;SDS011;9927;47.792;10.616;2022-07-01T05:24:15;2.42;;;2.35;;
19560;SDS011;9927;47.792;10.616;2022-07-01T05:26:43;2.70;;;2.50;;
19560;SDS011;9927;47.792;10.616;2022-07-01T05:29:10;2.30;;;2.20;;
19560;SDS011;9927;47.792;10.616;2022-07-01T05:31:37;2.40;;;2.30;;
19560;SDS011;9927;47.792;10.616;2022-07-01T05:34:05;2.97;;;2.78;;
19560;SDS011;9927;47.792;10.616;2022-07-01T05:36:33;2.72;;;2.70;;
19560;SDS011;9927;47.792;10.616;2022-07-01T05:39:01;2.50;;;2.40;;
19560;SDS011;9927;47.792;10.616;2022-07-01T05:41:30;2.60;;;2.40;;
19560;SDS011;9927;47.792;10.616;2022-07-01T05:43:58;2.20;;;2.20;;
19560;SDS011;9927;47.792;10.616;2022-07-01T05:46:25;2.85;;;2.63;;
19560;SDS011;9927;47.792;10.616;2022-07-01T05:48:52;3.08;;;2.80;;
19560;SDS011;9927;47.792;10.616;2022-07-01T05:51:19;2.70;;;2.50;;
19560;SDS011;9927;47.792;10.616;2022-07-01T05:53:50;2.10;;;2.10;;
19560;SDS011;9927;47.792;10.616;2022-07-01T05:56:17;2.33;;;1.90;;
19560;SDS011;9927;47.792;10.616;2022-07-01T05:58:44;2.58;;;1.95;;
19560;SDS011;9927;47.792;10.616;2022-07-01T06:01:14;2.00;;;1.90;;
19560;SDS011;9927;47.792;10.616;2022-07-01T06:03:42;1.80;;;1.70;;
19560;SDS011;9927;47.792;10.616;2022-07-01T06:06:09;1.40;;;1.40;;
19560;SDS011;9927;47.792;10.616;2022-07-01T06:08:37;1.50;;;1.40;;
19560;SDS011;9927;47.792;10.616;2022-07-01T06:11:04;2.35;;;1.10;;
19560;SDS011;9927;47.792;10.616;2022-07-01T06:13:31;1.13;;;1.13;;
19560;SDS011;9927;47.792;10.616;2022-07-01T06:15:59;1.20;;;1.20;;
19560;SDS011;9927;47.792;10.616;2022-07-01T06:18:26;1.10;;;1.10;;
19560;SDS011;9927;47.792;10.616;2022-07-01T06:20:53;1.30;;;1.20;;
19560;SDS011;9927;47.792;10.616;2022-07-01T06:23:21;1.20;;;1.20;;
19560;SDS011;9927;47.792;10.616;2022-07-01T06:25:49;1.10;;;1.10;;
19560;SDS011;9927;47.792;10.616;2022-07-01T06:28:16;1.23;;;1.23;;
19560;SDS011;9927;47.792;10.616;2022-07-01T06:30:43;1.27;;;1.13;;
19560;SDS011;9927;47.792;10.616;2022-07-01T06:33:12;1.10;;;1.10;;
19560;SDS011;9927;47.792;10.616;2022-07-01T06:35:40;1.10;;;1.10;;
19560;SDS011;9927;47.792;10.616;2022-07-01T06:38:07;1.20;;;1.20;;
19560;SDS011;9927;47.792;10.616;2022-07-01T06:40:35;1.17;;;1.17;;
19560;SDS011;9927;47.792;10.616;2022-07-01T06:43:02;1.27;;;1.27;;
19560;SDS011;9927;47.792;10.616;2022-07-01T06:45:30;1.00;;;1.00;;
19560;SDS011;9927;47.792;10.616;2022-07-01T06:48:00;1.25;;;1.25;;
19560;SDS011;9927;47.792;10.616;2022-07-01T06:50:29;1.20;;;1.20;;
19560;SDS011;9927;47.792;10.616;2022-07-01T06:52:57;1.35;;;1.25;;
19560;SDS011;9927;47.792;10.616;2022-07-01T06:55:24;1.25;;;1.20;;
19560;SDS011;9927;47.792;10.616;2022-07-01T06:57:51;1.20;;;1.13;;
19560;SDS011;9927;47.792;10.616;2022-07-01T07:00:18;1.10;;;1.10;;
19560;SDS011;9927;47.792;10.616;2022-07-01T07:02:46;1.10;;;1.10;;
19560;SDS011;9927;47.792;10.616;2022-07-01T07:05:13;1.75;;;1.20;;
19560;SDS011;9927;47.792;10.616;2022-07-01T07:07:40;1.05;;;1.05;;
19560;SDS011;9927;47.792;10.616;2022-07-01T07:10:08;0.95;;;0.95;;
19560;SDS011;9927;47.792;10.616;2022-07-01T07:12:35;1.10;;;1.10;;
19560;SDS011;9927;47.792;10.616;2022-07-01T07:15:03;1.10;;;1.10;;
19560;SDS011;9927;47.792;10.616;2022-07-01T07:17:30;1.17;;;1.17;;
19560;SDS011;9927;47.792;10.616;2022-07-01T07:19:58;1.20;;;1.20;;
19560;SDS011;9927;47.792;10.616;2022-07-01T07:22:25;1.20;;;1.20;;
19560;SDS011;9927;47.792;10.616;2022-07-01T07:24:52;1.20;;;1.20;;
19560;SDS011;9927;47.792;10.616;2022-07-01T07:27:20;1.00;;;1.00;;
19560;SDS011;9927;47.792;10.616;2022-07-01T07:29:47;1.20;;;1.20;;
19560;SDS011;9927;47.792;10.616;2022-07-01T07:32:15;1.20;;;1.20;;
19560;SDS011;9927;47.792;10.616;2022-07-01T07:34:42;1.20;;;1.20;;
19560;SDS011;9927;47.792;10.616;2022-07-01T07:37:09;1.10;;;1.10;;
19560;SDS011;9927;47.792;10.616;2022-07-01T07:39:38;1.30;;;1.30;;
19560;SDS011;9927;47.792;10.616;2022-07-01T07:42:05;1.20;;;1.20;;
19560;SDS011;9927;47.792;10.616;2022-07-01T07:44:32;1.40;;;1.40;;
19560;SDS011;9927;47.792;10.616;2022-07-01T07:47:00;1.35;;;1.35;;
19560;SDS011;9927;47.792;10.616;2022-07-01T07:49:27;1.30;;;1.30;;
19560;SDS011;9927;47.792;10.616;2022-07-01T07:51:54;1.20;;;1.20;;
19560;SDS011;9927;47.792;10.616;2022-07-01T07:54:22;1.40;;;1.30;;
19560;SDS011;9927;47.792;10.616;2022-07-01T07:56:49;1.20;;;1.20;;
19560;SDS011;9927;47.792;10.616;2022-07-01T07:59:16;0.90;;;0.90;;
19560;SDS011;9927;47.792;10.616;2022-07-01T08:01:46;1.20;;;1.20;;
19560;SDS011;9927;47.792;10.616;2022-07-01T08:04:13;1.20;;;1.20;;
19560;SDS011;9927;47.792;10.616;2022-07-01T08:06:43;1.20;;;1.20;;
19560;SDS011;9927;47.792;10.616;2022-07-01T08:09:10;1.20;;;1.20;;
19560;SDS011;9927;47.792;10.616;2022-07-01T08:11:38;1.55;;;1.10;;
19560;SDS011;9927;47.792;10.616;2022-07-01T08:14:05;1.20;;;1.20;;
19560;SDS011;9927;47.792;10.616;2022-07-01T08:16:32;1.10;;;1.10;;
19560;SDS011;9927;47.792;10.616;2022-07-01T08:19:00;1.20;;;1.20;;
19560;SDS011;9927;47.792;10.616;2022-07-01T08:21:29;1.10;;;1.10;;
19560;SDS011;9927;47.792;10.616;2022-07-01T08:23:56;1.20;;;1.20;;
19560;SDS011;9927;47.792;10.616;2022-07-01T08:26:26;1.15;;;1.15;;
19560;SDS011;9927;47.792;10.616;2022-07-01T08:28:54;1.10;;;1.10;;
19560;SDS011;9927;47.792;10.616;2022-07-01T08:31:21;1.00;;;1.00;;
19560;SDS011;9927;47.792;10.616;2022-07-01T08:33:48;1.30;;;1.27;;
19560;SDS011;9927;47.792;10.616;2022-07-01T08:36:16;1.20;;;1.20;;
19560;SDS011;9927;47.792;10.616;2022-07-01T08:38:43;1.10;;;1.10;;
19560;SDS011;9927;47.792;10.616;2022-07-01T08:41:11;1.10;;;1.10;;
19560;SDS011;9927;47.792;10.616;2022-07-01T08:43:40;1.25;;;1.25;;
19560;SDS011;9927;47.792;10.616;2022-07-01T08:46:07;1.30;;;1.20;;
19560;SDS011;9927;47.792;10.616;2022-07-01T08:48:35;1.10;;;1.10;;
19560;SDS011;9927;47.792;10.616;2022-07-01T08:51:02;1.30;;;1.30;;
19560;SDS011;9927;47.792;10.616;2022-07-01T08:53:31;1.10;;;1.10;;
19560;SDS011;9927;47.792;10.616;2022-07-01T08:55:58;1.10;;;1.10;;
19560;SDS011;9927;47.792;10.616;2022-07-01T08:58:44;1.13;;;1.13;;
19560;SDS011;9927;47.792;10.616;2022-07-01T09:01:15;1.20;;;1.20;;
19560;SDS011;9927;47.792;10.616;2022-07-01T09:03:49;1.20;;;1.20;;
19560;SDS011;9927;47.792;10.616;2022-07-01T09:06:28;1.10;;;1.10;;
19560;SDS011;9927;47.792;10.616;2022-07-01T09:09:00;1.20;;;1.20;;
19560;SDS011;9927;47.792;10.616;2022-07-01T09:11:47;1.00;;;1.00;;
19560;SDS011;9927;47.792;10.616;2022-07-01T09:14:22;1.20;;;1.20;;
19560;SDS011;9927;47.792;10.616;2022-07-01T09:16:58;1.30;;;1.30;;
19560;SDS011;9927;47.792;10.616;2022-07-01T09:19:28;1.10;;;1.10;;
19560;SDS011;9927;47.792;10.616;2022-07-01T09:21:58;1.10;;;1.10;;
19560;SDS011;9927;47.792;10.616;2022-07-01T09:24:31;1.10;;;1.10;;
19560;SDS011;9927;47.792;10.616;2022-07-01T09:27:09;1.08;;;1.08;;
19560;SDS011;9927;47.792;10.616;2022-07-01T09:29:45;1.10;;;1.10;;
19560;SDS011;9927;47.792;10.616;2022-07-01T09:32:24;1.33;;;1.20;;
19560;SDS011;9927;47.792;10.616;2022-07-01T09:34:52;1.20;;;1.20;;
19560;SDS011;9927;47.792;10.616;2022-07-01T09:37:24;1.30;;;1.30;;
19560;SDS011;9927;47.792;10.616;2022-07-01T09:39:52;1.20;;;1.20;;
19560;SDS011;9927;47.792;10.616;2022-07-01T09:42:24;1.30;;;1.30;;
19560;SDS011;9927;47.792;10.616;2022-07-01T09:44:56;1.50;;;1.50;;
19560;SDS011;9927;47.792;10.616;2022-07-01T09:47:30;1.20;;;1.20;;
19560;SDS011;9927;47.792;10.616;2022-07-01T09:49:59;1.17;;;1.17;;
19560;SDS011;9927;47.792;10.616;2022-07-01T09:52:27;0.90;;;0.90;;
19560;SDS011;9927;47.792;10.616;2022-07-01T09:55:03;1.30;;;1.30;;
19560;SDS011;9927;47.792;10.616;2022-07-01T09:57:31;1.30;;;1.30;;
19560;SDS011;9927;47.792;10.616;2022-07-01T09:59:59;1.35;;;1.35;;
19560;SDS011;9927;47.792;10.616;2022-07-01T10:02:29;1.30;;;1.30;;
19560;SDS011;9927;47.792;10.616;2022-07-01T10:05:01;1.50;;;1.50;;
19560;SDS011;9927;47.792;10.616;2022-07-01T10:13:04;1.52;;;1.52;;
19560;SDS011;9927;47.792;10.616;2022-07-01T10:15:34;1.25;;;1.20;;
19560;SDS011;9927;47.792;10.616;2022-07-01T10:18:02;1.40;;;1.30;;
19560;SDS011;9927;47.792;10.616;2022-07-01T10:20:30;1.38;;;1.38;;
19560;SDS011;9927;47.792;10.616;2022-07-01T10:23:01;1.52;;;1.30;;
19560;SDS011;9927;47.792;10.616;2022-07-01T10:25:31;1.45;;;1.45;;
19560;SDS011;9927;47.792;10.616;2022-07-01T10:36:18;1.63;;;1.52;;
19560;SDS011;9927;47.792;10.616;2022-07-01T10:41:32;1.33;;;1.33;;
19560;SDS011;9927;47.792;10.616;2022-07-01T10:44:03;1.20;;;1.20;;
19560;SDS011;9927;47.792;10.616;2022-07-01T10:46:42;1.40;;;1.40;;
19560;SDS011;9927;47.792;10.616;2022-07-01T10:49:16;1.50;;;1.50;;
19560;SDS011;9927;47.792;10.616;2022-07-01T10:51:54;1.50;;;1.50;;
19560;SDS011;9927;47.792;10.616;2022-07-01T10:59:50;1.48;;;1.48;;
19560;SDS011;9927;47.792;10.616;2022-07-01T11:02:21;1.58;;;1.58;;
19560;SDS011;9927;47.792;10.616;2022-07-01T11:04:57;1.40;;;1.40;;
19560;SDS011;9927;47.792;10.616;2022-07-01T11:07:32;1.60;;;1.50;;
19560;SDS011;9927;47.792;10.616;2022-07-01T11:10:02;1.30;;;1.30;;
19560;SDS011;9927;47.792;10.616;2022-07-01T11:12:32;1.60;;;1.60;;
19560;SDS011;9927;47.792;10.616;2022-07-01T11:15:00;1.70;;;1.70;;
19560;SDS011;9927;47.792;10.616;2022-07-01T11:17:34;2.30;;;1.58;;
19560;SDS011;9927;47.792;10.616;2022-07-01T11:20:02;1.90;;;1.40;;
19560;SDS011;9927;47.792;10.616;2022-07-01T11:22:33;1.60;;;1.60;;
19560;SDS011;9927;47.792;10.616;2022-07-01T11:25:05;1.58;;;1.58;;
19560;SDS011;9927;47.792;10.616;2022-07-01T11:27:35;1.80;;;1.80;;
19560;SDS011;9927;47.792;10.616;2022-07-01T11:30:07;1.60;;;1.60;;
19560;SDS011;9927;47.792;10.616;2022-07-01T11:32:39;1.70;;;1.70;;
19560;SDS011;9927;47.792;10.616;2022-07-01T11:35:17;1.95;;;1.60;;
19560;SDS011;9927;47.792;10.616;2022-07-01T11:40:55;1.45;;;1.45;;
19560;SDS011;9927;47.792;10.616;2022-07-01T11:43:24;1.80;;;1.70;;
19560;SDS011;9927;47.792;10.616;2022-07-01T11:45:53;1.73;;;1.73;;
19560;SDS011;9927;47.792;10.616;2022-07-01T11:48:28;1.70;;;1.70;;
19560;SDS011;9927;47.792;10.616;2022-07-01T11:50:56;1.70;;;1.70;;
19560;SDS011;9927;47.792;10.616;2022-07-01T11:53:24;2.00;;;2.00;;
19560;SDS011;9927;47.792;10.616;2022-07-01T11:55:52;2.00;;;2.00;;
19560;SDS011;9927;47.792;10.616;2022-07-01T11:58:19;1.80;;;1.80;;
19560;SDS011;9927;47.792;10.616;2022-07-01T12:00:46;2.00;;;1.90;;
19560;SDS011;9927;47.792;10.616;2022-07-01T12:03:28;2.03;;;1.92;;
19560;SDS011;9927;47.792;10.616;2022-07-01T12:05:57;1.80;;;1.80;;
19560;SDS011;9927;47.792;10.616;2022-07-01T12:08:25;1.90;;;1.90;;
19560;SDS011;9927;47.792;10.616;2022-07-01T12:10:53;1.83;;;1.73;;
19560;SDS011;9927;47.792;10.616;2022-07-01T12:13:21;1.55;;;1.55;;
19560;SDS011;9927;47.792;10.616;2022-07-01T12:15:52;2.97;;;1.77;;
19560;SDS011;9927;47.792;10.616;2022-07-01T12:18:19;2.00;;;1.90;;
19560;SDS011;9927;47.792;10.616;2022-07-01T12:20:47;1.70;;;1.70;;
19560;SDS011;9927;47.792;10.616;2022-07-01T12:23:21;1.73;;;1.73;;
19560;SDS011;9927;47.792;10.616;2022-07-01T12:25:49;1.60;;;1.60;;
19560;SDS011;9927;47.792;10.616;2022-07-01T12:28:38;2.05;;;1.60;;
19560;SDS011;9927;47.792;10.616;2022-07-01T12:31:06;1.60;;;1.50;;
19560;SDS011;9927;47.792;10.616;2022-07-01T12:33:36;1.50;;;1.50;;
19560;SDS011;9927;47.792;10.616;2022-07-01T12:36:06;1.60;;;1.60;;
19560;SDS011;9927;47.792;10.616;2022-07-01T12:38:33;1.65;;;1.58;;
19560;SDS011;9927;47.792;10.616;2022-07-01T12:41:01;2.10;;;2.00;;
19560;SDS011;9927;47.792;10.616;2022-07-01T12:43:32;1.63;;;1.52;;
19560;SDS011;9927;47.792;10.616;2022-07-01T12:46:04;1.70;;;1.60;;
19560;SDS011;9927;47.792;10.616;2022-07-01T12:48:47;1.70;;;1.60;;
19560;SDS011;9927;47.792;10.616;2022-07-01T12:51:14;1.50;;;1.50;;
19560;SDS011;9927;47.792;10.616;2022-07-01T12:53:42;1.65;;;1.55;;
19560;SDS011;9927;47.792;10.616;2022-07-01T12:56:21;1.67;;;1.65;;
19560;SDS011;9927;47.792;10.616;2022-07-01T12:58:50;1.50;;;1.50;;
19560;SDS011;9927;47.792;10.616;2022-07-01T13:01:20;1.60;;;1.60;;
19560;SDS011;9927;47.792;10.616;2022-07-01T13:03:48;1.60;;;1.60;;
19560;SDS011;9927;47.792;10.616;2022-07-01T13:06:16;1.70;;;1.70;;
19560;SDS011;9927;47.792;10.616;2022-07-01T13:08:43;1.70;;;1.60;;
19560;SDS011;9927;47.792;10.616;2022-07-01T13:11:11;1.80;;;1.80;;
19560;SDS011;9927;47.792;10.616;2022-07-01T13:13:38;1.80;;;1.70;;
19560;SDS011;9927;47.792;10.616;2022-07-01T13:16:05;1.70;;;1.70;;
19560;SDS011;9927;47.792;10.616;2022-07-01T13:18:33;1.70;;;1.60;;
19560;SDS011;9927;47.792;10.616;2022-07-01T13:21:00;1.60;;;1.50;;
19560;SDS011;9927;47.792;10.616;2022-07-01T13:23:30;1.70;;;1.70;;
19560;SDS011;9927;47.792;10.616;2022-07-01T13:26:00;1.85;;;1.70;;
19560;SDS011;9927;47.792;10.616;2022-07-01T13:28:31;1.58;;;1.55;;
19560;SDS011;9927;47.792;10.616;2022-07-01T13:30:58;2.40;;;1.77;;
19560;SDS011;9927;47.792;10.616;2022-07-01T13:33:26;2.13;;;2.03;;
19560;SDS011;9927;47.792;10.616;2022-07-01T13:35:53;1.90;;;1.80;;
19560;SDS011;9927;47.792;10.616;2022-07-01T13:38:20;2.10;;;2.00;;
19560;SDS011;9927;47.792;10.616;2022-07-01T13:40:48;2.35;;;2.25;;
19560;SDS011;9927;47.792;10.616;2022-07-01T13:43:15;1.95;;;1.85;;
19560;SDS011;9927;47.792;10.616;2022-07-01T13:45:43;1.70;;;1.70;;
19560;SDS011;9927;47.792;10.616;2022-07-01T13:48:11;3.35;;;1.85;;
19560;SDS011;9927;47.792;10.616;2022-07-01T13:50:38;4.05;;;2.05;;
19560;SDS011;9927;47.792;10.616;2022-07-01T13:53:05;1.98;;;1.98;;
19560;SDS011;9927;47.792;10.616;2022-07-01T13:55:32;2.55;;;2.45;;
19560;SDS011;9927;47.792;10.616;2022-07-01T13:58:00;2.00;;;2.00;;
19560;SDS011;9927;47.792;10.616;2022-07-01T14:00:27;1.95;;;1.77;;
19560;SDS011;9927;47.792;10.616;2022-07-01T14:02:55;2.40;;;2.30;;
19560;SDS011;9927;47.792;10.616;2022-07-01T14:05:22;2.45;;;2.20;;
19560;SDS011;9927;47.792;10.616;2022-07-01T14:07:49;1.75;;;1.67;;
19560;SDS011;9927;47.792;10.616;2022-07-01T14:10:16;1.88;;;1.73;;
19560;SDS011;9927;47.792;10.616;2022-07-01T14:12:46;1.83;;;1.83;;
19560;SDS011;9927;47.792;10.616;2022-07-01T14:15:14;2.05;;;1.83;;
19560;SDS011;9927;47.792;10.616;2022-07-01T14:17:41;1.50;;;1.40;;
19560;SDS011;9927;47.792;10.616;2022-07-01T14:20:11;1.30;;;1.30;;
19560;SDS011;9927;47.792;10.616;2022-07-01T14:22:38;1.30;;;1.30;;
19560;SDS011;9927;47.792;10.616;2022-07-01T14:25:06;1.50;;;1.40;;
19560;SDS011;9927;47.792;10.616;2022-07-01T14:27:33;1.30;;;1.30;;
19560;SDS011;9927;47.792;10.616;2022-07-01T14:30:01;1.58;;;1.48;;
19560;SDS011;9927;47.792;10.616;2022-07-01T14:32:28;1.80;;;1.75;;
19560;SDS011;9927;47.792;10.616;2022-07-01T14:34:56;1.40;;;1.40;;
19560;SDS011;9927;47.792;10.616;2022-07-01T14:37:23;1.50;;;1.50;;
19560;SDS011;9927;47.792;10.616;2022-07-01T14:39:51;1.40;;;1.40;;
19560;SDS011;9927;47.792;10.616;2022-07-01T14:42:25;1.60;;;1.60;;
19560;SDS011;9927;47.792;10.616;2022-07-01T14:44:53;1.52;;;1.42;;
19560;SDS011;9927;47.792;10.616;2022-07-01T14:47:22;1.63;;;1.63;;
19560;SDS011;9927;47.792;10.616;2022-07-01T14:49:50;1.48;;;1.48;;
19560;SDS011;9927;47.792;10.616;2022-07-01T14:52:20;1.50;;;1.50;;
19560;SDS011;9927;47.792;10.616;2022-07-01T14:54:49;1.20;;;1.20;;
19560;SDS011;9927;47.792;10.616;2022-07-01T14:57:17;1.30;;;1.30;;
19560;SDS011;9927;47.792;10.616;2022-07-01T14:59:44;1.50;;;1.40;;
19560;SDS011;9927;47.792;10.616;2022-07-01T15:02:12;1.40;;;1.40;;
19560;SDS011;9927;47.792;10.616;2022-07-01T15:04:40;1.40;;;1.40;;
19560;SDS011;9927;47.792;10.616;2022-07-01T15:07:08;1.30;;;1.30;;
19560;SDS011;9927;47.792;10.616;2022-07-01T15:09:35;1.38;;;1.35;;
19560;SDS011;9927;47.792;10.616;2022-07-01T15:12:03;1.30;;;1.30;;
19560;SDS011;9927;47.792;10.616;2022-07-01T15:14:30;1.50;;;1.40;;
19560;SDS011;9927;47.792;10.616;2022-07-01T15:16:58;1.33;;;1.33;;
19560;SDS011;9927;47.792;10.616;2022-07-01T15:19:26;1.30;;;1.30;;
19560;SDS011;9927;47.792;10.616;2022-07-01T15:21:54;1.40;;;1.40;;
19560;SDS011;9927;47.792;10.616;2022-07-01T15:24:22;1.20;;;1.20;;
19560;SDS011;9927;47.792;10.616;2022-07-01T15:26:51;1.10;;;1.10;;
19560;SDS011;9927;47.792;10.616;2022-07-01T15:29:19;1.30;;;1.30;;
19560;SDS011;9927;47.792;10.616;2022-07-01T15:31:47;1.27;;;1.13;;
19560;SDS011;9927;47.792;10.616;2022-07-01T15:34:17;1.20;;;1.20;;
19560;SDS011;9927;47.792;10.616;2022-07-01T15:36:45;1.20;;;1.20;;
19560;SDS011;9927;47.792;10.616;2022-07-01T15:39:12;1.00;;;1.00;;
19560;SDS011;9927;47.792;10.616;2022-07-01T15:41:40;1.20;;;1.20;;
19560;SDS011;9927;47.792;10.616;2022-07-01T15:44:10;1.30;;;1.30;;
19560;SDS011;9927;47.792;10.616;2022-07-01T15:46:37;1.30;;;1.30;;
19560;SDS011;9927;47.792;10.616;2022-07-01T15:49:05;0.95;;;0.95;;
19560;SDS011;9927;47.792;10.616;2022-07-01T15:51:34;1.40;;;1.40;;
19560;SDS011;9927;47.792;10.616;2022-07-01T15:54:02;1.42;;;1.40;;
19560;SDS011;9927;47.792;10.616;2022-07-01T15:56:30;1.30;;;1.30;;
19560;SDS011;9927;47.792;10.616;2022-07-01T15:58:58;1.13;;;1.13;;
19560;SDS011;9927;47.792;10.616;2022-07-01T16:01:25;1.50;;;1.40;;
19560;SDS011;9927;47.792;10.616;2022-07-01T16:03:53;1.30;;;1.30;;
19560;SDS011;9927;47.792;10.616;2022-07-01T16:06:21;1.42;;;1.40;;
19560;SDS011;9927;47.792;10.616;2022-07-01T16:08:52;1.50;;;1.40;;
19560;SDS011;9927;47.792;10.616;2022-07-01T16:11:24;1.35;;;1.20;;
19560;SDS011;9927;47.792;10.616;2022-07-01T16:13:52;1.30;;;1.30;;
19560;SDS011;9927;47.792;10.616;2022-07-01T16:16:25;1.35;;;1.30;;
19560;SDS011;9927;47.792;10.616;2022-07-01T16:18:58;1.42;;;1.30;;
19560;SDS011;9927;47.792;10.616;2022-07-01T16:21:29;1.42;;;1.42;;
19560;SDS011;9927;47.792;10.616;2022-07-01T16:23:57;1.20;;;1.20;;
19560;SDS011;9927;47.792;10.616;2022-07-01T16:26:27;1.60;;;1.60;;
19560;SDS011;9927;47.792;10.616;2022-07-01T16:28:54;1.65;;;1.55;;
19560;SDS011;9927;47.792;10.616;2022-07-01T16:31:22;1.80;;;1.70;;
19560;SDS011;9927;47.792;10.616;2022-07-01T16:33:49;1.60;;;1.60;;
19560;SDS011;9927;47.792;10.616;2022-07-01T16:36:32;1.40;;;1.40;;
19560;SDS011;9927;47.792;10.616;2022-07-01T16:39:02;1.60;;;1.60;;
19560;SDS011;9927;47.792;10.616;2022-07-01T16:44:14;1.60;;;1.50;;
19560;SDS011;9927;47.792;10.616;2022-07-01T16:47:04;1.48;;;1.40;;
19560;SDS011;9927;47.792;10.616;2022-07-01T16:49:32;1.48;;;1.45;;
19560;SDS011;9927;47.792;10.616;2022-07-01T16:52:10;1.50;;;1.50;;
19560;SDS011;9927;47.792;10.616;2022-07-01T16:54:42;1.50;;;1.50;;
19560;SDS011;9927;47.792;10.616;2022-07-01T16:57:16;1.80;;;1.70;;
19560;SDS011;9927;47.792;10.616;2022-07-01T16:59:48;1.90;;;1.80;;
19560;SDS011;9927;47.792;10.616;2022-07-01T17:02:15;1.45;;;1.42;;
19560;SDS011;9927;47.792;10.616;2022-07-01T17:04:47;1.48;;;1.48;;
19560;SDS011;9927;47.792;10.616;2022-07-01T17:07:16;1.60;;;1.60;;
19560;SDS011;9927;47.792;10.616;2022-07-01T17:09:44;1.73;;;1.73;;
19560;SDS011;9927;47.792;10.616;2022-07-01T17:12:13;1.70;;;1.70;;
19560;SDS011;9927;47.792;10.616;2022-07-01T17:14:44;1.60;;;1.60;;
19560;SDS011;9927;47.792;10.616;2022-07-01T17:17:16;1.50;;;1.50;;
19560;SDS011;9927;47.792;10.616;2022-07-01T17:19:46;1.98;;;1.70;;
19560;SDS011;9927;47.792;10.616;2022-07-01T17:22:42;1.60;;;1.60;;
19560;SDS011;9927;47.792;10.616;2022-07-01T17:25:21;2.45;;;1.60;;
19560;SDS011;9927;47.792;10.616;2022-07-01T17:33:38;1.70;;;1.60;;
19560;SDS011;9927;47.792;10.616;2022-07-01T17:36:11;1.33;;;1.33;;
19560;SDS011;9927;47.792;10.616;2022-07-01T17:38:47;2.38;;;1.60;;
19560;SDS011;9927;47.792;10.616;2022-07-01T17:41:19;1.50;;;1.50;;
19560;SDS011;9927;47.792;10.616;2022-07-01T17:43:57;1.58;;;1.58;;
19560;SDS011;9927;47.792;10.616;2022-07-01T17:46:27;1.65;;;1.65;;
19560;SDS011;9927;47.792;10.616;2022-07-01T17:48:56;1.50;;;1.50;;
19560;SDS011;9927;47.792;10.616;2022-07-01T17:51:25;1.50;;;1.50;;
19560;SDS011;9927;47.792;10.616;2022-07-01T17:53:54;1.50;;;1.50;;
19560;SDS011;9927;47.792;10.616;2022-07-01T17:56:22;1.40;;;1.40;;
19560;SDS011;9927;47.792;10.616;2022-07-01T17:58:59;1.60;;;1.60;;
19560;SDS011;9927;47.792;10.616;2022-07-01T18:01:32;1.35;;;1.35;;
19560;SDS011;9927;47.792;10.616;2022-07-01T18:04:01;1.77;;;1.60;;
19560;SDS011;9927;47.792;10.616;2022-07-01T18:06:31;1.40;;;1.40;;
19560;SDS011;9927;47.792;10.616;2022-07-01T18:08:59;1.75;;;1.75;;
19560;SDS011;9927;47.792;10.616;2022-07-01T18:11:36;1.90;;;1.80;;
19560;SDS011;9927;47.792;10.616;2022-07-01T18:20:17;1.92;;;1.83;;
19560;SDS011;9927;47.792;10.616;2022-07-01T18:22:46;1.70;;;1.60;;
19560;SDS011;9927;47.792;10.616;2022-07-01T18:25:27;1.70;;;1.70;;
19560;SDS011;9927;47.792;10.616;2022-07-01T18:27:56;1.60;;;1.60;;
19560;SDS011;9927;47.792;10.616;2022-07-01T18:30:25;1.70;;;1.70;;
19560;SDS011;9927;47.792;10.616;2022-07-01T18:33:04;2.10;;;1.90;;
19560;SDS011;9927;47.792;10.616;2022-07-01T18:35:36;1.60;;;1.60;;
19560;SDS011;9927;47.792;10.616;2022-07-01T18:38:05;1.75;;;1.75;;
19560;SDS011;9927;47.792;10.616;2022-07-01T18:40:34;3.75;;;2.20;;
19560;SDS011;9927;47.792;10.616;2022-07-01T18:43:04;2.20;;;2.10;;